createdAt,value
2022-09-05T00:02:06.487Z,2.03
2022-09-05T00:04:24.100Z,1.93
2022-09-05T00:06:32.814Z,1.80
2022-09-05T00:09:06.511Z,2.00
2022-09-05T00:11:42.505Z,1.93
2022-09-05T00:14:05.402Z,1.80
2022-09-05T00:16:07.167Z,1.90
2022-09-05T00:22:52.682Z,1.80
2022-09-05T00:24:21.664Z,2.07
2022-09-05T00:24:35.421Z,1.90
2022-09-05T00:26:32.732Z,2.17
2022-09-05T00:28:37.689Z,1.90
2022-09-05T00:31:07.532Z,2.20
2022-09-05T00:33:27.419Z,1.90
2022-09-05T00:35:43.718Z,1.80
2022-09-05T00:37:49.116Z,2.00
2022-09-05T00:40:03.945Z,2.00
2022-09-05T00:42:18.370Z,2.00
2022-09-05T00:44:23.926Z,2.13
2022-09-05T00:46:34.476Z,2.03
2022-09-05T00:48:44.922Z,1.90
2022-09-05T00:50:52.659Z,2.30
2022-09-05T00:53:07.612Z,2.10
2022-09-05T00:55:27.387Z,2.40
2022-09-05T00:58:06.301Z,2.07
2022-09-05T01:00:17.351Z,1.83
2022-09-05T01:02:48.461Z,2.10
2022-09-05T01:04:59.862Z,2.10
2022-09-05T01:07:20.563Z,1.90
2022-09-05T01:09:43.876Z,2.10
2022-09-05T01:12:17.074Z,1.87
2022-09-05T01:14:40.373Z,2.20
2022-09-05T01:16:42.059Z,2.27
2022-09-05T01:19:09.821Z,2.33
2022-09-05T01:21:29.841Z,1.97
2022-09-05T01:23:49.807Z,2.17
2022-09-05T01:26:37.123Z,2.30
2022-09-05T01:28:44.636Z,1.93
2022-09-05T01:31:28.152Z,2.03
2022-09-05T01:33:55.900Z,2.13
2022-09-05T01:36:23.304Z,1.93
2022-09-05T01:40:11.850Z,2.50
2022-09-05T01:41:34.102Z,2.33
2022-09-05T01:43:50.991Z,2.17
2022-09-05T01:46:03.372Z,2.20
2022-09-05T01:48:26.785Z,2.20
2022-09-05T01:50:48.185Z,2.50
2022-09-05T01:53:25.841Z,2.20
2022-09-05T01:56:06.399Z,1.93
2022-09-05T01:58:31.984Z,2.23
2022-09-05T02:00:35.162Z,2.00
2022-09-05T02:02:50.179Z,2.10
2022-09-05T02:05:01.527Z,2.20
2022-09-05T02:07:30.806Z,2.13
2022-09-05T02:09:40.373Z,2.20
2022-09-05T02:12:02.382Z,2.37
2022-09-05T02:14:34.179Z,1.97
2022-09-05T02:16:44.314Z,2.00
2022-09-05T02:18:52.409Z,2.03
2022-09-05T02:21:00.607Z,1.60
2022-09-05T02:23:27.341Z,2.40
2022-09-05T02:26:02.302Z,2.20
2022-09-05T02:28:13.442Z,2.33
2022-09-05T02:30:23.169Z,2.27
2022-09-05T02:32:43.288Z,2.20
2022-09-05T02:35:07.173Z,2.00
2022-09-05T02:37:22.854Z,2.20
2022-09-05T02:45:03.838Z,2.20
2022-09-05T02:45:11.901Z,2.40
2022-09-05T02:45:35.863Z,2.20
2022-09-05T02:48:15.603Z,2.23
2022-09-05T02:57:27.403Z,2.00
2022-09-05T02:57:28.165Z,2.23
2022-09-05T02:57:42.483Z,2.70
2022-09-05T02:59:10.024Z,2.53
2022-09-05T03:01:23.989Z,2.63
2022-09-05T03:03:39.998Z,2.20
2022-09-05T03:06:10.597Z,2.20
2022-09-05T03:08:19.039Z,1.90
2022-09-05T03:10:29.545Z,2.27
2022-09-05T03:13:07.549Z,2.00
2022-09-05T03:15:53.927Z,2.20
2022-09-05T03:17:55.596Z,2.27
2022-09-05T03:20:42.323Z,2.17
2022-09-05T03:23:36.202Z,1.90
2022-09-05T03:25:56.576Z,2.10
2022-09-05T03:28:35.901Z,2.10
2022-09-05T03:31:05.211Z,2.00
2022-09-05T03:33:25.698Z,2.00
2022-09-05T03:35:45.885Z,2.17
2022-09-05T03:38:20.443Z,1.60
2022-09-05T03:40:43.955Z,2.33
2022-09-05T03:43:10.226Z,2.23
2022-09-05T03:45:37.024Z,2.13
2022-09-05T03:47:48.159Z,2.00
2022-09-05T03:56:51.543Z,2.10
2022-09-05T03:57:15.205Z,2.17
2022-09-05T03:57:23.305Z,2.07
2022-09-05T03:58:57.088Z,2.10
2022-09-05T04:01:11.089Z,2.27
2022-09-05T04:08:05.953Z,2.30
2022-09-05T04:08:17.421Z,2.17
2022-09-05T04:08:48.851Z,2.10
2022-09-05T04:10:57.401Z,1.90
2022-09-05T04:13:02.556Z,2.27
2022-09-05T04:15:27.433Z,1.87
2022-09-05T04:17:50.064Z,2.70
2022-09-05T04:20:12.532Z,1.97
2022-09-05T04:22:20.111Z,2.23
2022-09-05T04:24:37.091Z,2.57
2022-09-05T04:27:07.589Z,2.40
2022-09-05T04:29:17.196Z,2.23
2022-09-05T04:31:48.362Z,2.07
2022-09-05T04:34:00.330Z,1.80
2022-09-05T04:36:17.900Z,2.20
2022-09-05T04:38:41.322Z,1.80
2022-09-05T04:41:04.558Z,2.20
2022-09-05T04:43:45.030Z,2.03
2022-09-05T04:46:19.116Z,2.27
2022-09-05T04:48:27.755Z,1.80
2022-09-05T04:50:38.084Z,1.90
2022-09-05T04:52:40.040Z,1.93
2022-09-05T04:55:00.369Z,2.00
2022-09-05T04:57:13.629Z,2.07
2022-09-05T05:02:41.883Z,1.90
2022-09-05T05:06:01.308Z,1.83
2022-09-05T05:06:12.586Z,1.90
2022-09-05T05:07:28.114Z,2.03
2022-09-05T05:09:46.734Z,2.20
2022-09-05T05:17:55.286Z,2.20
2022-09-05T05:18:08.469Z,2.00
2022-09-05T05:18:11.321Z,2.20
2022-09-05T05:20:41.600Z,2.47
2022-09-05T05:22:48.713Z,2.10
2022-09-05T05:24:56.301Z,2.10
2022-09-05T05:27:10.852Z,2.10
2022-09-05T05:29:36.706Z,2.40
2022-09-05T05:31:46.284Z,1.93
2022-09-05T05:33:54.015Z,2.10
2022-09-05T05:35:59.927Z,2.03
2022-09-05T05:38:17.397Z,1.87
2022-09-05T05:40:22.898Z,2.37
2022-09-05T05:42:24.710Z,2.20
2022-09-05T05:44:35.943Z,2.27
2022-09-05T05:46:41.718Z,2.10
2022-09-05T05:48:45.676Z,2.00
2022-09-05T05:51:39.688Z,2.33
2022-09-05T05:54:23.032Z,2.37
2022-09-05T05:56:38.417Z,3.40
2022-09-05T05:58:49.534Z,2.10
2022-09-05T06:00:54.153Z,2.33
2022-09-05T06:03:24.772Z,2.13
2022-09-05T06:05:26.538Z,1.70
2022-09-05T06:08:27.549Z,2.10
2022-09-05T06:14:52.868Z,2.30
2022-09-05T06:15:03.764Z,2.00
2022-09-05T06:15:40.126Z,1.90
2022-09-05T06:18:07.208Z,2.03
2022-09-05T06:22:07.351Z,2.70
2022-09-05T06:23:36.651Z,1.90
2022-09-05T06:26:18.769Z,2.47
2022-09-05T06:28:27.424Z,1.90
2022-09-05T06:31:22.576Z,2.30
2022-09-05T06:33:52.292Z,2.27
2022-09-05T06:36:07.205Z,2.07
2022-09-05T06:38:27.893Z,2.10
2022-09-05T06:40:36.672Z,2.20
2022-09-05T06:42:42.827Z,2.03
2022-09-05T06:45:00.291Z,2.10
2022-09-05T06:47:33.322Z,2.03
2022-09-05T06:50:05.676Z,2.13
2022-09-05T06:52:30.567Z,2.40
2022-09-05T06:55:03.961Z,2.40
2022-09-05T06:57:11.512Z,2.20
2022-09-05T06:59:37.960Z,1.90
2022-09-05T07:02:00.554Z,1.70
2022-09-05T07:05:14.882Z,2.00
2022-09-05T07:07:08.254Z,1.83
2022-09-05T07:09:28.618Z,2.05
2022-09-05T07:11:30.768Z,1.88
2022-09-05T07:14:05.004Z,2.13
2022-09-05T07:16:31.496Z,2.20
2022-09-05T07:19:28.386Z,1.98
2022-09-05T07:21:48.114Z,2.28
2022-09-05T07:24:11.068Z,2.30
2022-09-05T07:26:13.288Z,2.00
2022-09-05T07:28:36.891Z,2.15
2022-09-05T07:30:48.102Z,2.03
2022-09-05T07:32:53.945Z,1.95
2022-09-05T07:34:58.365Z,2.20
2022-09-05T07:37:35.770Z,1.92
2022-09-05T07:40:25.229Z,2.03
2022-09-05T07:43:10.063Z,2.42
2022-09-05T07:45:16.999Z,2.20
2022-09-05T07:47:26.274Z,2.00
2022-09-05T07:49:32.450Z,2.00
2022-09-05T07:56:49.778Z,2.10
2022-09-05T07:56:54.862Z,2.10
2022-09-05T07:57:22.343Z,1.80
2022-09-05T07:59:15.569Z,1.90
2022-09-05T08:01:20.123Z,2.30
2022-09-05T08:03:29.688Z,1.80
2022-09-05T08:05:43.485Z,1.67
2022-09-05T08:07:52.805Z,2.30
2022-09-05T08:10:15.603Z,1.90
2022-09-05T08:12:23.509Z,2.17
2022-09-05T08:15:01.441Z,1.88
2022-09-05T08:17:14.117Z,1.80
2022-09-05T08:19:37.018Z,1.90
2022-09-05T08:21:46.508Z,1.67
2022-09-05T08:24:13.716Z,2.00
2022-09-05T08:26:46.901Z,2.17
2022-09-05T08:29:04.111Z,2.00
2022-09-05T08:31:12.448Z,1.73
2022-09-05T08:33:22.483Z,2.20
2022-09-05T08:35:37.876Z,1.65
2022-09-05T08:37:43.023Z,2.30
2022-09-05T08:39:47.479Z,1.95
2022-09-05T08:42:05.570Z,2.08
2022-09-05T08:46:44.682Z,1.60
2022-09-05T08:46:51.909Z,2.00
2022-09-05T08:49:37.003Z,2.28
2022-09-05T08:51:53.915Z,1.80
2022-09-05T08:54:12.042Z,2.00
2022-09-05T08:56:21.092Z,2.00
2022-09-05T08:58:55.373Z,2.05
2022-09-05T09:02:11.607Z,2.50
2022-09-05T09:04:11.455Z,2.17
2022-09-05T09:06:20.714Z,1.85
2022-09-05T09:08:42.500Z,1.80
2022-09-05T09:11:02.353Z,2.00
2022-09-05T09:13:16.111Z,2.00
2022-09-05T09:15:24.911Z,1.90
2022-09-05T09:17:40.553Z,1.83
2022-09-05T09:20:03.698Z,1.92
2022-09-05T09:22:27.221Z,1.80
2022-09-05T09:24:41.092Z,1.77
2022-09-05T09:26:57.138Z,1.77
2022-09-05T09:29:08.150Z,1.92
2022-09-05T09:31:37.377Z,1.80
2022-09-05T09:34:07.692Z,1.60
2022-09-05T09:36:20.951Z,1.85
2022-09-05T09:38:41.250Z,2.00
2022-09-05T09:41:02.274Z,1.90
2022-09-05T09:43:29.337Z,2.00
2022-09-05T09:45:52.155Z,2.13
2022-09-05T09:48:17.675Z,2.08
2022-09-05T09:50:59.037Z,2.00
2022-09-05T09:53:15.218Z,2.10
2022-09-05T09:55:31.721Z,2.25
2022-09-05T09:57:51.147Z,1.92
2022-09-05T10:00:07.781Z,1.83
2022-09-05T10:06:33.839Z,2.13
2022-09-05T10:10:39.045Z,2.03
2022-09-05T10:10:53.340Z,2.10
2022-09-05T10:13:39.148Z,1.95
2022-09-05T10:16:18.842Z,1.70
2022-09-05T10:18:40.630Z,1.90
2022-09-05T10:21:16.936Z,2.20
2022-09-05T10:23:37.333Z,2.08
2022-09-05T10:26:09.353Z,2.40
2022-09-05T10:28:26.434Z,2.00
2022-09-05T10:31:55.568Z,2.10
2022-09-05T10:35:16.770Z,1.88
2022-09-05T10:36:23.985Z,2.10
2022-09-05T10:38:40.310Z,2.20
2022-09-05T10:41:11.183Z,1.85
2022-09-05T10:43:22.811Z,1.85
2022-09-05T10:45:55.698Z,1.90
2022-09-05T10:48:19.271Z,2.05
2022-09-05T10:50:27.414Z,1.80
2022-09-05T10:52:37.131Z,2.00
2022-09-05T10:54:41.674Z,1.70
2022-09-05T10:56:51.683Z,1.65
2022-09-05T11:01:40.286Z,1.90
2022-09-05T11:02:27.234Z,1.90
2022-09-05T11:04:46.652Z,1.75
2022-09-05T11:07:10.542Z,2.10
2022-09-05T11:09:35.316Z,2.13
2022-09-05T11:11:46.764Z,1.75
2022-09-05T11:13:51.174Z,2.38
2022-09-05T11:16:04.244Z,1.77
2022-09-05T11:18:19.612Z,2.10
2022-09-05T11:20:45.725Z,2.08
2022-09-05T11:22:49.139Z,1.92
2022-09-05T11:24:56.216Z,1.70
2022-09-05T11:27:23.359Z,2.00
2022-09-05T11:29:50.523Z,1.90
2022-09-05T11:36:42.957Z,2.00
2022-09-05T11:39:52.769Z,2.00
2022-09-05T11:39:58.055Z,2.28
2022-09-05T11:40:31.265Z,1.85
2022-09-05T11:42:49.156Z,2.13
2022-09-05T11:45:40.217Z,1.92
2022-09-05T11:48:15.445Z,2.08
2022-09-05T11:50:29.080Z,2.35
2022-09-05T11:52:52.856Z,1.98
2022-09-05T12:02:23.172Z,2.17
2022-09-05T12:04:28.621Z,1.80
2022-09-05T12:06:57.274Z,1.90
2022-09-05T12:09:26.035Z,2.60
2022-09-05T12:12:39.637Z,2.25
2022-09-05T12:15:04.333Z,1.85
2022-09-05T12:17:47.018Z,1.92
2022-09-05T12:36:06.179Z,1.98
2022-09-05T12:36:10.637Z,1.85
2022-09-05T12:40:45.119Z,1.70
2022-09-05T12:41:45.125Z,1.60
2022-09-05T12:44:40.014Z,2.30
2022-09-05T12:46:13.582Z,1.80
2022-09-05T12:48:39.331Z,1.88
2022-09-05T12:51:05.156Z,1.90
2022-09-05T12:53:15.877Z,2.38
2022-09-05T12:55:17.606Z,1.98
2022-09-05T13:02:13.314Z,1.95
2022-09-05T13:03:04.349Z,2.08
2022-09-05T13:03:09.166Z,1.73
2022-09-05T13:05:18.694Z,1.83
2022-09-05T13:07:32.369Z,2.10
2022-09-05T13:12:04.469Z,1.98
2022-09-05T13:14:55.455Z,1.73
2022-09-05T13:15:23.273Z,1.77
2022-09-05T13:17:45.151Z,1.80
2022-09-05T13:19:52.381Z,1.85
2022-09-05T13:21:57.330Z,1.98
2022-09-05T13:24:27.467Z,1.70
2022-09-05T13:26:41.502Z,1.85
2022-09-05T13:29:10.530Z,1.85
2022-09-05T13:36:14.191Z,1.80
2022-09-05T13:37:58.605Z,1.80
2022-09-05T13:38:02.657Z,1.75
2022-09-05T13:39:05.735Z,2.67
2022-09-05T13:41:26.996Z,1.83
2022-09-05T13:43:38.432Z,1.83
2022-09-05T13:46:04.821Z,1.77
2022-09-05T13:51:28.970Z,1.60
2022-09-05T13:53:44.111Z,2.10
2022-09-05T13:56:03.059Z,2.15
2022-09-05T13:58:42.706Z,1.55
2022-09-05T14:01:01.250Z,1.80
2022-09-05T14:03:37.984Z,1.70
2022-09-05T14:06:34.390Z,1.83
2022-09-05T14:09:35.018Z,1.80
2022-09-05T14:11:38.168Z,2.08
2022-09-05T14:14:11.324Z,1.92
2022-09-05T14:16:26.273Z,1.80
2022-09-05T14:18:57.533Z,1.80
2022-09-05T14:21:16.051Z,1.83
2022-09-05T14:23:21.124Z,2.00
2022-09-05T14:25:33.864Z,1.85
2022-09-05T14:27:38.583Z,1.90
2022-09-05T14:29:55.907Z,1.95
2022-09-05T14:37:46.276Z,1.90
2022-09-05T14:38:01.213Z,1.80
2022-09-05T14:38:05.777Z,2.10
2022-09-05T14:40:30.498Z,1.80
2022-09-05T14:43:07.364Z,1.95
2022-09-05T14:45:42.677Z,1.75
2022-09-05T14:48:43.125Z,2.00
2022-09-05T14:51:25.426Z,2.05
2022-09-05T14:56:00.091Z,2.28
2022-09-05T15:02:51.878Z,1.95
2022-09-05T15:02:55.113Z,1.85
2022-09-05T15:03:20.210Z,1.85
2022-09-05T15:05:28.182Z,2.10
2022-09-05T15:07:33.775Z,1.80
2022-09-05T15:12:18.208Z,1.88
2022-09-05T15:12:24.051Z,1.90
2022-09-05T15:14:30.920Z,1.90
2022-09-05T15:16:43.441Z,2.00
2022-09-05T15:18:50.885Z,1.85
2022-09-05T15:20:54.815Z,2.22
2022-09-05T15:22:57.572Z,2.10
2022-09-05T15:25:22.775Z,2.20
2022-09-05T15:27:28.504Z,2.28
2022-09-05T15:29:35.543Z,2.20
2022-09-05T15:31:37.833Z,1.90
2022-09-05T15:33:44.202Z,2.13
2022-09-05T15:35:45.926Z,2.00
2022-09-05T15:37:50.148Z,2.00
2022-09-05T15:40:22.415Z,2.20
2022-09-05T15:42:31.785Z,2.10
2022-09-05T15:44:43.337Z,2.22
2022-09-05T15:47:03.690Z,1.83
2022-09-05T15:49:10.769Z,2.38
2022-09-05T15:51:23.751Z,2.05
2022-09-05T15:53:29.578Z,2.00
2022-09-05T15:55:49.891Z,1.80
2022-09-05T15:58:04.906Z,1.90
2022-09-05T16:00:32.574Z,1.90
2022-09-05T16:02:39.313Z,2.55
2022-09-05T16:10:28.408Z,2.28
2022-09-05T16:10:38.517Z,1.95
2022-09-05T16:10:42.875Z,2.05
2022-09-05T16:12:13.786Z,1.70
2022-09-05T16:14:26.415Z,2.30
2022-09-05T16:23:12.789Z,2.65
2022-09-05T16:23:18.011Z,2.42
2022-09-05T16:23:28.521Z,2.50
2022-09-05T16:23:46.400Z,1.88
2022-09-05T16:26:09.492Z,2.25
2022-09-05T16:28:12.487Z,2.58
2022-09-05T16:30:29.402Z,2.40
2022-09-05T16:32:35.356Z,2.70
2022-09-05T16:34:54.680Z,2.50
2022-09-05T16:37:08.888Z,2.28
2022-09-05T16:39:15.911Z,2.47
2022-09-05T16:41:24.731Z,2.70
2022-09-05T16:43:37.619Z,2.30
2022-09-05T16:45:48.282Z,2.38
2022-09-05T16:48:31.209Z,2.67
2022-09-05T16:50:51.843Z,2.85
2022-09-05T16:53:30.263Z,2.55
2022-09-05T16:55:42.875Z,2.88
2022-09-05T16:58:14.361Z,2.70
2022-09-05T17:00:16.473Z,2.55
2022-09-05T17:02:49.770Z,4.32
2022-09-05T17:05:03.195Z,2.83
2022-09-05T17:07:06.938Z,2.55
2022-09-05T17:09:22.307Z,2.55
2022-09-05T17:11:30.091Z,2.50
2022-09-05T17:13:45.093Z,2.70
2022-09-05T17:15:52.438Z,3.00
2022-09-05T17:18:18.532Z,2.63
2022-09-05T17:20:30.535Z,2.83
2022-09-05T17:25:45.988Z,2.70
2022-09-05T17:29:32.751Z,2.90
2022-09-05T17:29:33.327Z,2.90
2022-09-05T17:32:38.280Z,2.92
2022-09-05T17:34:49.433Z,2.55
2022-09-05T17:37:17.358Z,2.78
2022-09-05T17:39:49.129Z,2.63
2022-09-05T17:42:03.302Z,2.90
2022-09-05T17:44:27.545Z,2.50
2022-09-05T17:46:34.004Z,3.00
2022-09-05T17:49:16.198Z,2.90
2022-09-05T17:51:09.336Z,3.00
2022-09-05T17:53:25.156Z,2.93
2022-09-05T17:55:38.114Z,2.70
2022-09-05T17:57:41.283Z,3.40
2022-09-05T17:59:43.312Z,2.60
2022-09-05T18:02:03.776Z,2.97
2022-09-05T18:04:16.035Z,2.93
2022-09-05T18:06:19.339Z,2.50
2022-09-05T18:11:33.468Z,2.40
2022-09-05T18:14:01.068Z,2.90
2022-09-05T18:16:02.797Z,2.63
2022-09-05T18:21:21.533Z,2.97
2022-09-05T18:23:41.098Z,2.80
2022-09-05T18:28:22.506Z,2.97
2022-09-05T18:30:27.077Z,2.63
2022-09-05T18:32:40.922Z,2.80
2022-09-05T18:34:44.543Z,3.13
2022-09-05T18:36:48.825Z,2.97
2022-09-05T18:39:29.757Z,2.30
2022-09-05T18:41:41.813Z,2.80
2022-09-05T18:44:20.369Z,2.60
2022-09-05T18:46:32.800Z,2.67
2022-09-05T18:49:15.920Z,2.53
2022-09-05T18:51:25.623Z,2.93
2022-09-05T18:53:34.687Z,3.33
2022-09-05T18:56:13.986Z,2.60
2022-09-05T18:58:07.450Z,2.73
2022-09-05T19:00:13.801Z,2.80
2022-09-05T19:02:50.566Z,2.53
2022-09-05T19:04:53.955Z,2.37
2022-09-05T19:06:58.080Z,2.77
2022-09-05T19:09:14.437Z,2.67
2022-09-05T19:11:27.843Z,2.80
2022-09-05T19:13:38.589Z,2.70
2022-09-05T19:16:43.386Z,2.67
2022-09-05T19:19:16.355Z,2.77
2022-09-05T19:21:21.323Z,2.90
2022-09-05T19:23:29.225Z,2.90
2022-09-05T19:25:59.175Z,2.37
2022-09-05T19:36:51.436Z,2.50
2022-09-05T19:36:55.955Z,2.80
2022-09-05T19:36:56.640Z,2.60
2022-09-05T19:37:06.990Z,2.73
2022-09-05T19:38:26.582Z,3.10
2022-09-05T19:43:33.122Z,3.23
2022-09-05T19:47:37.700Z,2.87
2022-09-05T19:47:45.139Z,3.00
2022-09-05T19:48:08.808Z,2.73
2022-09-05T19:50:11.524Z,2.70
2022-09-05T19:52:17.319Z,2.37
2022-09-05T19:54:31.195Z,2.50
2022-09-05T19:56:37.919Z,2.60
2022-09-05T19:58:42.363Z,2.70
2022-09-05T20:00:53.988Z,2.50
2022-09-05T20:03:02.542Z,2.70
2022-09-05T20:05:08.016Z,2.53
2022-09-05T20:07:32.698Z,2.83
2022-09-05T20:09:43.044Z,2.50
2022-09-05T20:11:59.863Z,2.80
2022-09-05T20:14:18.792Z,2.53
2022-09-05T20:16:31.263Z,3.13
2022-09-05T20:18:40.235Z,2.63
2022-09-05T20:20:54.787Z,2.80
2022-09-05T20:23:06.857Z,2.50
2022-09-05T20:25:19.950Z,3.00
2022-09-05T20:27:38.198Z,3.37
2022-09-05T20:30:04.948Z,2.47
2022-09-05T20:32:06.921Z,2.73
2022-09-05T20:35:48.908Z,2.90
2022-09-05T20:43:10.589Z,3.13
2022-09-05T20:43:20.494Z,3.03
2022-09-05T20:43:22.630Z,3.13
2022-09-05T20:44:19.243Z,2.90
2022-09-05T20:47:46.426Z,2.27
2022-09-05T20:54:07.425Z,3.03
2022-09-05T20:54:16.797Z,2.70
2022-09-05T20:54:18.232Z,2.50
2022-09-05T20:56:06.115Z,3.30
2022-09-05T20:58:35.358Z,2.83
2022-09-05T21:00:41.349Z,3.30
2022-09-05T21:03:05.367Z,2.50
2022-09-05T21:05:21.069Z,2.93
2022-09-05T21:07:27.999Z,2.73
2022-09-05T21:09:30.064Z,2.30
2022-09-05T21:11:32.940Z,3.03
2022-09-05T21:13:51.853Z,2.53
2022-09-05T21:15:55.674Z,2.60
2022-09-05T21:18:18.651Z,2.97
2022-09-05T21:20:24.579Z,2.87
2022-09-05T21:22:39.422Z,2.63
2022-09-05T21:24:47.338Z,2.40
2022-09-05T21:26:50.395Z,2.90
2022-09-05T21:29:10.976Z,2.90
2022-09-05T21:31:17.395Z,3.10
2022-09-05T21:33:45.066Z,3.30
2022-09-05T21:35:50.197Z,3.43
2022-09-05T21:37:53.533Z,3.30
2022-09-05T21:39:58.479Z,2.73
2022-09-05T21:42:21.318Z,3.00
2022-09-05T21:47:35.421Z,2.87
2022-09-05T21:47:38.333Z,2.80
2022-09-05T21:49:09.003Z,3.20
2022-09-05T21:51:14.478Z,2.90
2022-09-05T21:55:09.342Z,3.53
2022-09-05T21:59:18.250Z,2.70
2022-09-05T21:59:33.665Z,2.80
2022-09-05T22:00:53.329Z,2.70
2022-09-05T22:02:55.438Z,3.03
2022-09-05T22:05:03.120Z,2.60
2022-09-05T22:07:05.628Z,3.23
2022-09-05T22:09:12.793Z,3.63
2022-09-05T22:11:16.075Z,3.07
2022-09-05T22:13:17.851Z,3.10
2022-09-05T22:15:27.622Z,3.23
2022-09-05T22:17:32.605Z,2.60
2022-09-05T22:19:37.477Z,3.00
2022-09-05T22:21:40.637Z,2.80
2022-09-05T22:23:45.005Z,2.80
2022-09-05T22:25:46.829Z,3.37
2022-09-05T22:27:50.098Z,3.43
2022-09-05T22:29:52.378Z,2.90
2022-09-05T22:31:54.735Z,3.20
2022-09-05T22:33:58.073Z,3.23
2022-09-05T22:35:59.773Z,3.17
2022-09-05T22:38:11.659Z,3.57
2022-09-05T22:40:16.889Z,3.70
2022-09-05T22:42:18.579Z,4.00
2022-09-05T22:44:20.302Z,2.70
2022-09-05T22:46:22.975Z,3.43
2022-09-05T22:48:25.059Z,2.83
2022-09-05T22:50:27.204Z,3.07
2022-09-05T22:52:28.953Z,3.43
2022-09-05T22:54:30.706Z,3.13
2022-09-05T22:56:35.737Z,3.10
2022-09-05T22:58:42.726Z,3.20
2022-09-05T23:00:45.254Z,3.70
2022-09-05T23:02:51.650Z,3.10
2022-09-05T23:04:54.405Z,3.27
2022-09-05T23:06:56.475Z,3.23
2022-09-05T23:08:58.536Z,3.60
2022-09-05T23:11:12.111Z,2.87
2022-09-05T23:13:13.843Z,3.70
2022-09-05T23:15:16.197Z,3.27
2022-09-05T23:17:17.930Z,4.23
2022-09-05T23:19:19.627Z,3.40
2022-09-05T23:21:21.477Z,3.43
2022-09-05T23:23:23.254Z,3.20
2022-09-05T23:25:24.998Z,3.13
2022-09-05T23:27:26.869Z,3.57
2022-09-05T23:29:28.537Z,3.00
2022-09-05T23:31:30.488Z,3.03
2022-09-05T23:33:33.169Z,2.90
2022-09-05T23:35:35.993Z,3.63
2022-09-05T23:37:37.716Z,2.90
2022-09-05T23:39:39.415Z,3.40
2022-09-05T23:41:41.276Z,3.40
2022-09-05T23:43:43.057Z,2.90
2022-09-05T23:45:47.530Z,2.93
2022-09-05T23:47:49.301Z,3.30
2022-09-05T23:49:50.968Z,3.40
2022-09-05T23:51:52.741Z,3.37
2022-09-05T23:53:54.425Z,3.30
2022-09-05T23:56:00.763Z,3.03
2022-09-05T23:58:02.739Z,3.43
